sensor_id;sensor_type;location;lat;lon;timestamp;P1;durP1;ratioP1;P2;durP2;ratioP2
49450;SDS011;35336;48.400;10.886;2022-12-18T00:00:12;87.27;;;45.23;;
49450;SDS011;35336;48.400;10.886;2022-12-18T00:00:27;85.95;;;44.45;;
49450;SDS011;35336;48.400;10.886;2022-12-18T00:00:43;84.03;;;42.83;;
49450;SDS011;35336;48.400;10.886;2022-12-18T00:00:59;85.07;;;43.63;;
49450;SDS011;35336;48.400;10.886;2022-12-18T00:01:33;82.55;;;42.70;;
49450;SDS011;35336;48.400;10.886;2022-12-18T00:01:50;80.90;;;43.35;;
49450;SDS011;35336;48.400;10.886;2022-12-18T00:02:05;83.87;;;45.13;;
49450;SDS011;35336;48.400;10.886;2022-12-18T00:02:21;85.57;;;45.50;;
49450;SDS011;35336;48.400;10.886;2022-12-18T00:02:36;87.15;;;45.05;;
49450;SDS011;35336;48.400;10.886;2022-12-18T00:02:51;86.03;;;45.27;;
49450;SDS011;35336;48.400;10.886;2022-12-18T00:03:07;85.65;;;45.58;;
49450;SDS011;35336;48.400;10.886;2022-12-18T00:03:22;84.03;;;44.33;;
49450;SDS011;35336;48.400;10.886;2022-12-18T00:03:38;83.27;;;43.60;;
49450;SDS011;35336;48.400;10.886;2022-12-18T00:03:53;81.43;;;43.15;;
49450;SDS011;35336;48.400;10.886;2022-12-18T00:04:18;82.22;;;43.00;;
49450;SDS011;35336;48.400;10.886;2022-12-18T00:04:36;81.70;;;43.80;;
49450;SDS011;35336;48.400;10.886;2022-12-18T00:04:52;84.28;;;44.05;;
49450;SDS011;35336;48.400;10.886;2022-12-18T00:05:07;85.23;;;44.50;;
49450;SDS011;35336;48.400;10.886;2022-12-18T00:05:22;82.77;;;44.00;;
49450;SDS011;35336;48.400;10.886;2022-12-18T00:05:45;83.63;;;43.33;;
49450;SDS011;35336;48.400;10.886;2022-12-18T00:06:04;79.03;;;43.15;;
49450;SDS011;35336;48.400;10.886;2022-12-18T00:06:19;85.17;;;44.30;;
49450;SDS011;35336;48.400;10.886;2022-12-18T00:06:35;85.53;;;43.60;;
49450;SDS011;35336;48.400;10.886;2022-12-18T00:06:51;81.22;;;42.97;;
49450;SDS011;35336;48.400;10.886;2022-12-18T00:07:07;80.32;;;43.00;;
49450;SDS011;35336;48.400;10.886;2022-12-18T00:07:22;79.20;;;42.23;;
49450;SDS011;35336;48.400;10.886;2022-12-18T00:07:37;76.53;;;41.27;;
49450;SDS011;35336;48.400;10.886;2022-12-18T00:07:53;77.85;;;42.40;;
49450;SDS011;35336;48.400;10.886;2022-12-18T00:08:08;76.67;;;42.33;;
49450;SDS011;35336;48.400;10.886;2022-12-18T00:08:23;75.70;;;41.47;;
49450;SDS011;35336;48.400;10.886;2022-12-18T00:08:39;77.13;;;41.10;;
49450;SDS011;35336;48.400;10.886;2022-12-18T00:08:59;81.25;;;42.90;;
49450;SDS011;35336;48.400;10.886;2022-12-18T00:09:15;79.10;;;42.80;;
49450;SDS011;35336;48.400;10.886;2022-12-18T00:09:30;78.40;;;41.30;;
49450;SDS011;35336;48.400;10.886;2022-12-18T00:09:46;81.53;;;42.20;;
49450;SDS011;35336;48.400;10.886;2022-12-18T00:10:01;78.37;;;43.07;;
49450;SDS011;35336;48.400;10.886;2022-12-18T00:10:16;77.13;;;42.78;;
49450;SDS011;35336;48.400;10.886;2022-12-18T00:10:33;77.53;;;41.67;;
49450;SDS011;35336;48.400;10.886;2022-12-18T00:10:48;73.85;;;40.75;;
49450;SDS011;35336;48.400;10.886;2022-12-18T00:11:05;73.93;;;41.03;;
49450;SDS011;35336;48.400;10.886;2022-12-18T00:11:23;74.28;;;41.45;;
49450;SDS011;35336;48.400;10.886;2022-12-18T00:11:40;76.22;;;42.22;;
49450;SDS011;35336;48.400;10.886;2022-12-18T00:11:56;76.57;;;41.55;;
49450;SDS011;35336;48.400;10.886;2022-12-18T00:12:11;72.93;;;40.53;;
49450;SDS011;35336;48.400;10.886;2022-12-18T00:12:26;71.67;;;39.73;;
49450;SDS011;35336;48.400;10.886;2022-12-18T00:12:42;74.13;;;40.50;;
49450;SDS011;35336;48.400;10.886;2022-12-18T00:12:57;72.75;;;40.40;;
49450;SDS011;35336;48.400;10.886;2022-12-18T00:13:13;66.97;;;38.37;;
49450;SDS011;35336;48.400;10.886;2022-12-18T00:13:28;66.30;;;38.67;;
49450;SDS011;35336;48.400;10.886;2022-12-18T00:13:43;67.97;;;39.70;;
49450;SDS011;35336;48.400;10.886;2022-12-18T00:13:59;68.78;;;39.65;;
49450;SDS011;35336;48.400;10.886;2022-12-18T00:14:15;67.97;;;39.20;;
49450;SDS011;35336;48.400;10.886;2022-12-18T00:14:30;66.95;;;39.17;;
49450;SDS011;35336;48.400;10.886;2022-12-18T00:14:46;65.77;;;38.27;;
49450;SDS011;35336;48.400;10.886;2022-12-18T00:15:01;71.27;;;39.80;;
49450;SDS011;35336;48.400;10.886;2022-12-18T00:15:16;75.15;;;41.70;;
49450;SDS011;35336;48.400;10.886;2022-12-18T00:15:35;71.63;;;39.40;;
49450;SDS011;35336;48.400;10.886;2022-12-18T00:15:50;68.85;;;38.03;;
49450;SDS011;35336;48.400;10.886;2022-12-18T00:16:10;65.13;;;38.03;;
49450;SDS011;35336;48.400;10.886;2022-12-18T00:16:27;71.00;;;40.30;;
49450;SDS011;35336;48.400;10.886;2022-12-18T00:16:44;72.57;;;40.05;;
49450;SDS011;35336;48.400;10.886;2022-12-18T00:17:00;70.28;;;39.53;;
49450;SDS011;35336;48.400;10.886;2022-12-18T00:17:15;69.33;;;39.77;;
49450;SDS011;35336;48.400;10.886;2022-12-18T00:17:30;67.23;;;38.40;;
49450;SDS011;35336;48.400;10.886;2022-12-18T00:17:46;65.72;;;37.45;;
49450;SDS011;35336;48.400;10.886;2022-12-18T00:18:01;62.27;;;35.90;;
49450;SDS011;35336;48.400;10.886;2022-12-18T00:18:16;64.73;;;36.03;;
49450;SDS011;35336;48.400;10.886;2022-12-18T00:18:32;68.78;;;38.25;;
49450;SDS011;35336;48.400;10.886;2022-12-18T00:18:48;71.37;;;39.07;;
49450;SDS011;35336;48.400;10.886;2022-12-18T00:19:04;71.30;;;38.92;;
49450;SDS011;35336;48.400;10.886;2022-12-18T00:19:20;66.25;;;38.33;;
49450;SDS011;35336;48.400;10.886;2022-12-18T00:19:35;64.83;;;38.40;;
49450;SDS011;35336;48.400;10.886;2022-12-18T00:19:51;67.40;;;39.08;;
49450;SDS011;35336;48.400;10.886;2022-12-18T00:20:06;69.57;;;39.03;;
49450;SDS011;35336;48.400;10.886;2022-12-18T00:20:22;67.47;;;38.45;;
49450;SDS011;35336;48.400;10.886;2022-12-18T00:20:38;63.60;;;37.25;;
49450;SDS011;35336;48.400;10.886;2022-12-18T00:21:00;67.80;;;37.28;;
49450;SDS011;35336;48.400;10.886;2022-12-18T00:21:17;70.47;;;38.92;;
49450;SDS011;35336;48.400;10.886;2022-12-18T00:21:33;68.90;;;38.05;;
49450;SDS011;35336;48.400;10.886;2022-12-18T00:21:49;67.43;;;38.70;;
49450;SDS011;35336;48.400;10.886;2022-12-18T00:22:04;70.37;;;40.20;;
49450;SDS011;35336;48.400;10.886;2022-12-18T00:22:19;69.93;;;38.53;;
49450;SDS011;35336;48.400;10.886;2022-12-18T00:22:35;62.77;;;36.57;;
49450;SDS011;35336;48.400;10.886;2022-12-18T00:22:50;61.87;;;37.17;;
49450;SDS011;35336;48.400;10.886;2022-12-18T00:23:06;68.10;;;38.53;;
49450;SDS011;35336;48.400;10.886;2022-12-18T00:23:22;68.73;;;38.80;;
49450;SDS011;35336;48.400;10.886;2022-12-18T00:23:37;64.72;;;37.72;;
49450;SDS011;35336;48.400;10.886;2022-12-18T00:23:54;64.10;;;36.95;;
49450;SDS011;35336;48.400;10.886;2022-12-18T00:24:11;65.60;;;38.10;;
49450;SDS011;35336;48.400;10.886;2022-12-18T00:24:26;66.40;;;38.38;;
49450;SDS011;35336;48.400;10.886;2022-12-18T00:24:42;63.20;;;36.70;;
49450;SDS011;35336;48.400;10.886;2022-12-18T00:24:57;63.70;;;35.73;;
49450;SDS011;35336;48.400;10.886;2022-12-18T00:25:12;64.65;;;35.75;;
49450;SDS011;35336;48.400;10.886;2022-12-18T00:25:28;65.10;;;36.20;;
49450;SDS011;35336;48.400;10.886;2022-12-18T00:25:43;66.32;;;36.97;;
49450;SDS011;35336;48.400;10.886;2022-12-18T00:25:59;65.00;;;37.47;;
49450;SDS011;35336;48.400;10.886;2022-12-18T00:26:16;67.43;;;38.33;;
49450;SDS011;35336;48.400;10.886;2022-12-18T00:26:37;64.50;;;37.22;;
49450;SDS011;35336;48.400;10.886;2022-12-18T00:26:53;62.95;;;36.78;;
49450;SDS011;35336;48.400;10.886;2022-12-18T00:27:08;62.17;;;36.83;;
49450;SDS011;35336;48.400;10.886;2022-12-18T00:27:24;60.97;;;37.10;;
49450;SDS011;35336;48.400;10.886;2022-12-18T00:27:39;62.58;;;37.00;;
49450;SDS011;35336;48.400;10.886;2022-12-18T00:27:54;63.30;;;37.13;;
49450;SDS011;35336;48.400;10.886;2022-12-18T00:28:10;63.57;;;37.50;;
49450;SDS011;35336;48.400;10.886;2022-12-18T00:28:25;65.55;;;37.42;;
49450;SDS011;35336;48.400;10.886;2022-12-18T00:28:41;63.88;;;36.60;;
49450;SDS011;35336;48.400;10.886;2022-12-18T00:29:15;61.78;;;36.75;;
49450;SDS011;35336;48.400;10.886;2022-12-18T00:29:30;64.05;;;38.10;;
49450;SDS011;35336;48.400;10.886;2022-12-18T00:29:46;61.87;;;37.33;;
49450;SDS011;35336;48.400;10.886;2022-12-18T00:30:03;61.78;;;36.97;;
49450;SDS011;35336;48.400;10.886;2022-12-18T00:30:19;62.47;;;36.78;;
49450;SDS011;35336;48.400;10.886;2022-12-18T00:30:34;61.60;;;36.50;;
49450;SDS011;35336;48.400;10.886;2022-12-18T00:30:49;62.63;;;36.47;;
49450;SDS011;35336;48.400;10.886;2022-12-18T00:31:06;63.47;;;36.42;;
49450;SDS011;35336;48.400;10.886;2022-12-18T00:31:26;60.58;;;35.53;;
49450;SDS011;35336;48.400;10.886;2022-12-18T00:31:42;59.85;;;35.38;;
49450;SDS011;35336;48.400;10.886;2022-12-18T00:31:57;59.67;;;34.85;;
49450;SDS011;35336;48.400;10.886;2022-12-18T00:32:13;60.85;;;34.63;;
49450;SDS011;35336;48.400;10.886;2022-12-18T00:32:28;60.97;;;35.00;;
49450;SDS011;35336;48.400;10.886;2022-12-18T00:32:43;63.57;;;36.10;;
49450;SDS011;35336;48.400;10.886;2022-12-18T00:32:58;63.90;;;36.53;;
49450;SDS011;35336;48.400;10.886;2022-12-18T00:33:14;64.38;;;36.75;;
49450;SDS011;35336;48.400;10.886;2022-12-18T00:33:29;64.67;;;36.93;;
49450;SDS011;35336;48.400;10.886;2022-12-18T00:33:45;63.42;;;36.28;;
49450;SDS011;35336;48.400;10.886;2022-12-18T00:34:01;63.47;;;35.83;;
49450;SDS011;35336;48.400;10.886;2022-12-18T00:34:16;63.75;;;35.95;;
49450;SDS011;35336;48.400;10.886;2022-12-18T00:34:32;63.73;;;35.67;;
49450;SDS011;35336;48.400;10.886;2022-12-18T00:34:47;61.27;;;35.03;;
49450;SDS011;35336;48.400;10.886;2022-12-18T00:35:03;61.90;;;35.35;;
49450;SDS011;35336;48.400;10.886;2022-12-18T00:35:20;64.38;;;36.63;;
49450;SDS011;35336;48.400;10.886;2022-12-18T00:35:35;62.07;;;36.13;;
49450;SDS011;35336;48.400;10.886;2022-12-18T00:35:50;61.00;;;35.97;;
49450;SDS011;35336;48.400;10.886;2022-12-18T00:36:11;63.73;;;36.57;;
49450;SDS011;35336;48.400;10.886;2022-12-18T00:36:34;66.95;;;37.55;;
49450;SDS011;35336;48.400;10.886;2022-12-18T00:36:49;67.68;;;37.55;;
49450;SDS011;35336;48.400;10.886;2022-12-18T00:37:05;64.97;;;36.23;;
49450;SDS011;35336;48.400;10.886;2022-12-18T00:37:20;64.90;;;36.33;;
49450;SDS011;35336;48.400;10.886;2022-12-18T00:37:35;64.72;;;36.75;;
49450;SDS011;35336;48.400;10.886;2022-12-18T00:37:51;62.13;;;36.10;;
49450;SDS011;35336;48.400;10.886;2022-12-18T00:38:06;62.77;;;36.30;;
49450;SDS011;35336;48.400;10.886;2022-12-18T00:38:21;62.88;;;36.65;;
49450;SDS011;35336;48.400;10.886;2022-12-18T00:38:37;64.77;;;36.97;;
49450;SDS011;35336;48.400;10.886;2022-12-18T00:38:53;67.00;;;37.78;;
49450;SDS011;35336;48.400;10.886;2022-12-18T00:39:10;66.55;;;38.55;;
49450;SDS011;35336;48.400;10.886;2022-12-18T00:39:25;65.90;;;37.90;;
49450;SDS011;35336;48.400;10.886;2022-12-18T00:39:41;65.60;;;37.30;;
49450;SDS011;35336;48.400;10.886;2022-12-18T00:39:56;66.90;;;37.53;;
49450;SDS011;35336;48.400;10.886;2022-12-18T00:40:11;67.88;;;37.78;;
49450;SDS011;35336;48.400;10.886;2022-12-18T00:40:27;61.80;;;36.60;;
49450;SDS011;35336;48.400;10.886;2022-12-18T00:40:42;61.28;;;35.75;;
49450;SDS011;35336;48.400;10.886;2022-12-18T00:40:58;62.60;;;36.03;;
49450;SDS011;35336;48.400;10.886;2022-12-18T00:41:14;59.90;;;36.00;;
49450;SDS011;35336;48.400;10.886;2022-12-18T00:41:31;58.35;;;35.00;;
49450;SDS011;35336;48.400;10.886;2022-12-18T00:41:47;57.47;;;34.00;;
49450;SDS011;35336;48.400;10.886;2022-12-18T00:42:02;61.33;;;35.17;;
49450;SDS011;35336;48.400;10.886;2022-12-18T00:42:18;63.87;;;36.23;;
49450;SDS011;35336;48.400;10.886;2022-12-18T00:42:36;61.35;;;36.22;;
49450;SDS011;35336;48.400;10.886;2022-12-18T00:42:51;59.90;;;35.58;;
49450;SDS011;35336;48.400;10.886;2022-12-18T00:43:07;62.37;;;35.83;;
49450;SDS011;35336;48.400;10.886;2022-12-18T00:43:22;62.70;;;35.83;;
49450;SDS011;35336;48.400;10.886;2022-12-18T00:43:38;64.37;;;35.70;;
49450;SDS011;35336;48.400;10.886;2022-12-18T00:43:54;65.15;;;36.08;;
49450;SDS011;35336;48.400;10.886;2022-12-18T00:44:10;63.35;;;35.80;;
49450;SDS011;35336;48.400;10.886;2022-12-18T00:44:27;60.85;;;35.47;;
49450;SDS011;35336;48.400;10.886;2022-12-18T00:44:42;60.33;;;35.33;;
49450;SDS011;35336;48.400;10.886;2022-12-18T00:44:58;61.72;;;34.50;;
49450;SDS011;35336;48.400;10.886;2022-12-18T00:45:13;61.50;;;34.80;;
49450;SDS011;35336;48.400;10.886;2022-12-18T00:45:31;59.53;;;34.77;;
49450;SDS011;35336;48.400;10.886;2022-12-18T00:45:46;57.33;;;33.67;;
49450;SDS011;35336;48.400;10.886;2022-12-18T00:46:02;57.50;;;33.23;;
49450;SDS011;35336;48.400;10.886;2022-12-18T00:46:17;56.33;;;33.45;;
49450;SDS011;35336;48.400;10.886;2022-12-18T00:46:33;58.37;;;33.97;;
49450;SDS011;35336;48.400;10.886;2022-12-18T00:46:48;58.47;;;32.95;;
49450;SDS011;35336;48.400;10.886;2022-12-18T00:47:03;57.53;;;32.00;;
49450;SDS011;35336;48.400;10.886;2022-12-18T00:47:19;61.92;;;33.92;;
49450;SDS011;35336;48.400;10.886;2022-12-18T00:47:34;60.57;;;34.97;;
49450;SDS011;35336;48.400;10.886;2022-12-18T00:47:50;56.45;;;33.42;;
49450;SDS011;35336;48.400;10.886;2022-12-18T00:48:05;56.10;;;32.70;;
49450;SDS011;35336;48.400;10.886;2022-12-18T00:48:20;59.83;;;33.77;;
49450;SDS011;35336;48.400;10.886;2022-12-18T00:48:36;62.97;;;35.42;;
49450;SDS011;35336;48.400;10.886;2022-12-18T00:48:51;61.60;;;35.53;;
49450;SDS011;35336;48.400;10.886;2022-12-18T00:49:07;60.65;;;34.75;;
49450;SDS011;35336;48.400;10.886;2022-12-18T00:49:22;61.83;;;35.00;;
49450;SDS011;35336;48.400;10.886;2022-12-18T00:49:37;64.05;;;35.88;;
49450;SDS011;35336;48.400;10.886;2022-12-18T00:49:53;62.87;;;35.03;;
49450;SDS011;35336;48.400;10.886;2022-12-18T00:50:08;61.33;;;33.77;;
49450;SDS011;35336;48.400;10.886;2022-12-18T00:50:24;62.17;;;35.00;;
49450;SDS011;35336;48.400;10.886;2022-12-18T00:50:40;60.25;;;35.95;;
49450;SDS011;35336;48.400;10.886;2022-12-18T00:50:55;61.03;;;35.77;;
49450;SDS011;35336;48.400;10.886;2022-12-18T00:51:10;63.75;;;36.25;;
49450;SDS011;35336;48.400;10.886;2022-12-18T00:51:26;63.40;;;35.90;;
49450;SDS011;35336;48.400;10.886;2022-12-18T00:51:41;63.30;;;35.40;;
49450;SDS011;35336;48.400;10.886;2022-12-18T00:51:56;62.97;;;35.83;;
49450;SDS011;35336;48.400;10.886;2022-12-18T00:52:12;64.37;;;36.70;;
49450;SDS011;35336;48.400;10.886;2022-12-18T00:52:27;62.17;;;36.22;;
49450;SDS011;35336;48.400;10.886;2022-12-18T00:52:43;60.30;;;35.40;;
49450;SDS011;35336;48.400;10.886;2022-12-18T00:52:58;61.10;;;35.07;;
49450;SDS011;35336;48.400;10.886;2022-12-18T00:53:13;61.42;;;35.88;;
49450;SDS011;35336;48.400;10.886;2022-12-18T00:53:29;65.10;;;37.03;;
49450;SDS011;35336;48.400;10.886;2022-12-18T00:53:44;67.53;;;37.53;;
49450;SDS011;35336;48.400;10.886;2022-12-18T00:54:00;65.23;;;36.70;;
49450;SDS011;35336;48.400;10.886;2022-12-18T00:54:15;62.80;;;36.00;;
49450;SDS011;35336;48.400;10.886;2022-12-18T00:54:31;63.42;;;36.58;;
49450;SDS011;35336;48.400;10.886;2022-12-18T00:54:47;65.33;;;37.17;;
49450;SDS011;35336;48.400;10.886;2022-12-18T00:55:02;62.92;;;36.30;;
49450;SDS011;35336;48.400;10.886;2022-12-18T00:55:18;60.80;;;35.43;;
49450;SDS011;35336;48.400;10.886;2022-12-18T00:55:33;61.13;;;35.95;;
49450;SDS011;35336;48.400;10.886;2022-12-18T00:55:49;60.93;;;36.23;;
49450;SDS011;35336;48.400;10.886;2022-12-18T00:56:04;63.83;;;36.63;;
49450;SDS011;35336;48.400;10.886;2022-12-18T00:56:20;64.50;;;36.87;;
49450;SDS011;35336;48.400;10.886;2022-12-18T00:56:38;66.47;;;37.05;;
49450;SDS011;35336;48.400;10.886;2022-12-18T00:56:54;67.53;;;37.25;;
49450;SDS011;35336;48.400;10.886;2022-12-18T00:57:09;66.10;;;37.87;;
49450;SDS011;35336;48.400;10.886;2022-12-18T00:57:25;66.80;;;37.20;;
49450;SDS011;35336;48.400;10.886;2022-12-18T00:57:40;66.10;;;36.90;;
49450;SDS011;35336;48.400;10.886;2022-12-18T00:57:55;65.70;;;37.70;;
49450;SDS011;35336;48.400;10.886;2022-12-18T00:58:11;64.93;;;36.65;;
49450;SDS011;35336;48.400;10.886;2022-12-18T00:58:28;62.65;;;36.20;;
49450;SDS011;35336;48.400;10.886;2022-12-18T00:58:43;61.88;;;36.25;;
49450;SDS011;35336;48.400;10.886;2022-12-18T00:58:58;61.57;;;35.77;;
49450;SDS011;35336;48.400;10.886;2022-12-18T00:59:13;60.13;;;35.10;;
49450;SDS011;35336;48.400;10.886;2022-12-18T00:59:29;62.65;;;35.78;;
49450;SDS011;35336;48.400;10.886;2022-12-18T00:59:44;66.07;;;37.00;;
49450;SDS011;35336;48.400;10.886;2022-12-18T01:00:00;64.28;;;36.10;;
49450;SDS011;35336;48.400;10.886;2022-12-18T01:00:15;61.43;;;35.53;;
49450;SDS011;35336;48.400;10.886;2022-12-18T01:00:31;62.90;;;37.13;;
49450;SDS011;35336;48.400;10.886;2022-12-18T01:00:46;66.30;;;38.13;;
49450;SDS011;35336;48.400;10.886;2022-12-18T01:01:03;68.43;;;38.10;;
49450;SDS011;35336;48.400;10.886;2022-12-18T01:01:19;69.20;;;39.05;;
49450;SDS011;35336;48.400;10.886;2022-12-18T01:01:34;70.10;;;39.97;;
49450;SDS011;35336;48.400;10.886;2022-12-18T01:01:50;71.53;;;39.80;;
49450;SDS011;35336;48.400;10.886;2022-12-18T01:02:05;71.57;;;39.80;;
49450;SDS011;35336;48.400;10.886;2022-12-18T01:02:21;75.15;;;40.95;;
49450;SDS011;35336;48.400;10.886;2022-12-18T01:02:36;72.77;;;40.47;;
49450;SDS011;35336;48.400;10.886;2022-12-18T01:02:51;69.55;;;39.30;;
49450;SDS011;35336;48.400;10.886;2022-12-18T01:03:07;69.83;;;39.47;;
49450;SDS011;35336;48.400;10.886;2022-12-18T01:03:24;70.60;;;39.85;;
49450;SDS011;35336;48.400;10.886;2022-12-18T01:03:39;73.23;;;40.20;;
49450;SDS011;35336;48.400;10.886;2022-12-18T01:03:54;72.68;;;40.50;;
49450;SDS011;35336;48.400;10.886;2022-12-18T01:04:10;74.13;;;41.83;;
49450;SDS011;35336;48.400;10.886;2022-12-18T01:04:25;79.13;;;42.80;;
49450;SDS011;35336;48.400;10.886;2022-12-18T01:04:40;78.55;;;42.95;;
49450;SDS011;35336;48.400;10.886;2022-12-18T01:04:56;77.67;;;42.67;;
49450;SDS011;35336;48.400;10.886;2022-12-18T01:05:12;75.30;;;41.70;;
49450;SDS011;35336;48.400;10.886;2022-12-18T01:05:28;72.28;;;40.55;;
49450;SDS011;35336;48.400;10.886;2022-12-18T01:05:43;76.00;;;42.03;;
49450;SDS011;35336;48.400;10.886;2022-12-18T01:05:59;77.47;;;42.40;;
49450;SDS011;35336;48.400;10.886;2022-12-18T01:06:14;75.03;;;41.03;;
49450;SDS011;35336;48.400;10.886;2022-12-18T01:06:31;78.03;;;42.47;;
49450;SDS011;35336;48.400;10.886;2022-12-18T01:06:46;77.90;;;42.90;;
49450;SDS011;35336;48.400;10.886;2022-12-18T01:07:02;78.77;;;43.17;;
49450;SDS011;35336;48.400;10.886;2022-12-18T01:07:17;79.97;;;43.30;;
49450;SDS011;35336;48.400;10.886;2022-12-18T01:07:32;79.25;;;43.05;;
49450;SDS011;35336;48.400;10.886;2022-12-18T01:07:48;77.83;;;42.60;;
49450;SDS011;35336;48.400;10.886;2022-12-18T01:08:03;77.65;;;41.78;;
49450;SDS011;35336;48.400;10.886;2022-12-18T01:08:19;78.57;;;43.07;;
49450;SDS011;35336;48.400;10.886;2022-12-18T01:08:34;79.07;;;43.33;;
49450;SDS011;35336;48.400;10.886;2022-12-18T01:08:50;81.10;;;43.55;;
49450;SDS011;35336;48.400;10.886;2022-12-18T01:09:05;81.67;;;43.83;;
49450;SDS011;35336;48.400;10.886;2022-12-18T01:09:20;79.95;;;42.78;;
49450;SDS011;35336;48.400;10.886;2022-12-18T01:09:36;79.63;;;42.50;;
49450;SDS011;35336;48.400;10.886;2022-12-18T01:09:51;78.93;;;42.75;;
49450;SDS011;35336;48.400;10.886;2022-12-18T01:10:07;79.00;;;42.83;;
49450;SDS011;35336;48.400;10.886;2022-12-18T01:10:24;76.15;;;40.75;;
49450;SDS011;35336;48.400;10.886;2022-12-18T01:10:40;72.18;;;40.08;;
49450;SDS011;35336;48.400;10.886;2022-12-18T01:10:55;71.73;;;40.33;;
49450;SDS011;35336;48.400;10.886;2022-12-18T01:11:12;76.67;;;42.17;;
49450;SDS011;35336;48.400;10.886;2022-12-18T01:11:31;76.32;;;41.83;;
49450;SDS011;35336;48.400;10.886;2022-12-18T01:11:47;74.80;;;41.73;;
49450;SDS011;35336;48.400;10.886;2022-12-18T01:12:02;77.13;;;41.83;;
49450;SDS011;35336;48.400;10.886;2022-12-18T01:12:18;78.30;;;41.60;;
49450;SDS011;35336;48.400;10.886;2022-12-18T01:12:33;75.85;;;41.75;;
49450;SDS011;35336;48.400;10.886;2022-12-18T01:12:49;78.33;;;42.93;;
49450;SDS011;35336;48.400;10.886;2022-12-18T01:13:04;81.43;;;43.33;;
49450;SDS011;35336;48.400;10.886;2022-12-18T01:13:20;79.50;;;43.28;;
49450;SDS011;35336;48.400;10.886;2022-12-18T01:13:35;80.03;;;43.47;;
49450;SDS011;35336;48.400;10.886;2022-12-18T01:13:51;83.25;;;43.53;;
49450;SDS011;35336;48.400;10.886;2022-12-18T01:14:08;82.82;;;44.38;;
49450;SDS011;35336;48.400;10.886;2022-12-18T01:14:23;79.87;;;43.47;;
49450;SDS011;35336;48.400;10.886;2022-12-18T01:14:38;75.60;;;41.37;;
49450;SDS011;35336;48.400;10.886;2022-12-18T01:14:54;79.15;;;41.50;;
49450;SDS011;35336;48.400;10.886;2022-12-18T01:15:10;82.00;;;41.70;;
49450;SDS011;35336;48.400;10.886;2022-12-18T01:15:26;79.00;;;42.10;;
49450;SDS011;35336;48.400;10.886;2022-12-18T01:15:48;78.35;;;42.13;;
49450;SDS011;35336;48.400;10.886;2022-12-18T01:16:04;77.88;;;41.42;;
49450;SDS011;35336;48.400;10.886;2022-12-18T01:16:20;76.28;;;41.28;;
49450;SDS011;35336;48.400;10.886;2022-12-18T01:16:35;75.88;;;41.22;;
49450;SDS011;35336;48.400;10.886;2022-12-18T01:16:51;73.70;;;40.90;;
49450;SDS011;35336;48.400;10.886;2022-12-18T01:17:06;72.87;;;40.53;;
49450;SDS011;35336;48.400;10.886;2022-12-18T01:17:21;76.17;;;41.37;;
49450;SDS011;35336;48.400;10.886;2022-12-18T01:17:37;80.78;;;41.15;;
49450;SDS011;35336;48.400;10.886;2022-12-18T01:17:52;79.40;;;40.77;;
49450;SDS011;35336;48.400;10.886;2022-12-18T01:18:08;73.40;;;40.63;;
49450;SDS011;35336;48.400;10.886;2022-12-18T01:18:23;73.07;;;40.13;;
49450;SDS011;35336;48.400;10.886;2022-12-18T01:18:39;76.57;;;40.85;;
49450;SDS011;35336;48.400;10.886;2022-12-18T01:18:54;77.77;;;41.20;;
49450;SDS011;35336;48.400;10.886;2022-12-18T01:19:10;77.13;;;40.97;;
49450;SDS011;35336;48.400;10.886;2022-12-18T01:19:25;79.23;;;41.60;;
49450;SDS011;35336;48.400;10.886;2022-12-18T01:19:40;79.18;;;41.58;;
49450;SDS011;35336;48.400;10.886;2022-12-18T01:19:56;80.47;;;42.53;;
49450;SDS011;35336;48.400;10.886;2022-12-18T01:20:11;79.10;;;41.93;;
49450;SDS011;35336;48.400;10.886;2022-12-18T01:20:27;73.30;;;39.58;;
49450;SDS011;35336;48.400;10.886;2022-12-18T01:20:43;72.53;;;40.20;;
49450;SDS011;35336;48.400;10.886;2022-12-18T01:20:58;73.23;;;40.80;;
49450;SDS011;35336;48.400;10.886;2022-12-18T01:21:15;72.90;;;41.03;;
49450;SDS011;35336;48.400;10.886;2022-12-18T01:21:31;75.95;;;41.25;;
49450;SDS011;35336;48.400;10.886;2022-12-18T01:21:46;75.30;;;40.03;;
49450;SDS011;35336;48.400;10.886;2022-12-18T01:22:01;72.63;;;39.20;;
49450;SDS011;35336;48.400;10.886;2022-12-18T01:22:17;69.53;;;37.93;;
49450;SDS011;35336;48.400;10.886;2022-12-18T01:22:32;69.80;;;38.30;;
49450;SDS011;35336;48.400;10.886;2022-12-18T01:22:47;73.07;;;39.90;;
49450;SDS011;35336;48.400;10.886;2022-12-18T01:23:03;70.90;;;39.90;;
49450;SDS011;35336;48.400;10.886;2022-12-18T01:23:18;70.15;;;40.10;;
49450;SDS011;35336;48.400;10.886;2022-12-18T01:23:33;71.40;;;40.13;;
49450;SDS011;35336;48.400;10.886;2022-12-18T01:23:53;70.27;;;38.97;;
49450;SDS011;35336;48.400;10.886;2022-12-18T01:24:10;72.07;;;38.67;;
49450;SDS011;35336;48.400;10.886;2022-12-18T01:24:27;75.13;;;38.35;;
49450;SDS011;35336;48.400;10.886;2022-12-18T01:24:42;74.32;;;39.28;;
49450;SDS011;35336;48.400;10.886;2022-12-18T01:24:57;73.13;;;39.80;;
49450;SDS011;35336;48.400;10.886;2022-12-18T01:25:13;70.23;;;39.83;;
49450;SDS011;35336;48.400;10.886;2022-12-18T01:25:28;69.40;;;39.63;;
49450;SDS011;35336;48.400;10.886;2022-12-18T01:25:43;69.57;;;38.60;;
49450;SDS011;35336;48.400;10.886;2022-12-18T01:26:03;72.82;;;38.88;;
49450;SDS011;35336;48.400;10.886;2022-12-18T01:26:20;74.95;;;39.78;;
49450;SDS011;35336;48.400;10.886;2022-12-18T01:26:35;73.05;;;40.45;;
49450;SDS011;35336;48.400;10.886;2022-12-18T01:26:51;73.97;;;40.60;;
49450;SDS011;35336;48.400;10.886;2022-12-18T01:27:06;75.95;;;40.15;;
49450;SDS011;35336;48.400;10.886;2022-12-18T01:27:21;75.37;;;39.47;;
49450;SDS011;35336;48.400;10.886;2022-12-18T01:27:37;72.47;;;39.13;;
49450;SDS011;35336;48.400;10.886;2022-12-18T01:27:52;74.50;;;40.23;;
49450;SDS011;35336;48.400;10.886;2022-12-18T01:28:07;76.27;;;40.37;;
49450;SDS011;35336;48.400;10.886;2022-12-18T01:28:23;75.68;;;39.47;;
49450;SDS011;35336;48.400;10.886;2022-12-18T01:28:38;74.80;;;40.20;;
49450;SDS011;35336;48.400;10.886;2022-12-18T01:28:54;74.63;;;41.17;;
49450;SDS011;35336;48.400;10.886;2022-12-18T01:29:10;77.53;;;41.88;;
49450;SDS011;35336;48.400;10.886;2022-12-18T01:29:26;75.82;;;41.92;;
49450;SDS011;35336;48.400;10.886;2022-12-18T01:29:41;74.63;;;40.73;;
49450;SDS011;35336;48.400;10.886;2022-12-18T01:29:56;74.63;;;40.20;;
49450;SDS011;35336;48.400;10.886;2022-12-18T01:30:12;77.55;;;40.85;;
49450;SDS011;35336;48.400;10.886;2022-12-18T01:30:27;79.90;;;41.57;;
49450;SDS011;35336;48.400;10.886;2022-12-18T01:30:42;74.05;;;40.58;;
49450;SDS011;35336;48.400;10.886;2022-12-18T01:31:08;71.80;;;39.60;;
49450;SDS011;35336;48.400;10.886;2022-12-18T01:31:26;75.22;;;41.00;;
49450;SDS011;35336;48.400;10.886;2022-12-18T01:31:42;77.00;;;40.75;;
49450;SDS011;35336;48.400;10.886;2022-12-18T01:31:58;80.40;;;40.80;;
49450;SDS011;35336;48.400;10.886;2022-12-18T01:32:13;79.60;;;40.83;;